Time;durP1;ratioP1;P1;durP2;ratioP2;P2;SDS_P1;SDS_P2;PMS_P1;PMS_P2;Temp;Humidity;BMP_temperature;BMP_pressure;BME280_temperature;BME280_humidity;BME280_pressure;Samples;Min_cycle;Max_cycle;Signal;HPM_P1;HPM_P2
2023/09/17 00:00:31;;;;;;;10.20;8.40;;;;;;;15.39;86.33;101036.08;105874;1262;96561;-88
2023/09/17 00:03:40;;;;;;;11.00;8.30;;;;;;;15.34;86.19;101032.91;105913;1261;96270;-86
2023/09/17 00:06:26;;;;;;;9.70;7.80;;;;;;;15.31;86.21;101030.05;105845;1264;101278;-87
2023/09/17 00:09:11;;;;;;;10.00;7.80;;;;;;;15.27;86.36;101032.58;106065;1260;99159;-88
2023/09/17 00:11:57;;;;;;;12.20;8.10;;;;;;;15.24;86.47;101030.75;106091;1267;97824;-87
2023/09/17 00:14:43;;;;;;;11.50;8.30;;;;;;;15.21;86.71;101028.25;105885;1261;97297;-87
2023/09/17 00:17:29;;;;;;;12.60;8.00;;;;;;;15.17;86.68;101029.25;105845;1264;96712;-87
2023/09/17 00:20:16;;;;;;;13.20;8.60;;;;;;;15.15;86.97;101024.27;105985;1262;100213;-88
2023/09/17 00:23:01;;;;;;;15.00;8.90;;;;;;;15.13;87.43;101018.16;105817;1261;99221;-88
2023/09/17 00:25:47;;;;;;;12.60;8.80;;;;;;;15.13;87.40;101015.13;105873;1259;97929;-88
2023/09/17 00:28:33;;;;;;;11.60;9.30;;;;;;;15.12;87.47;101014.66;106092;1261;97909;-88
2023/09/17 00:31:19;;;;;;;10.70;9.10;;;;;;;15.11;87.63;101012.69;106030;1259;97129;-88
2023/09/17 00:34:05;;;;;;;10.10;8.60;;;;;;;15.10;88.00;101009.23;106216;1261;100093;-86
2023/09/17 00:36:51;;;;;;;10.80;9.00;;;;;;;15.08;88.05;101006.89;106028;1263;99212;-88
2023/09/17 00:39:37;;;;;;;11.00;8.80;;;;;;;15.04;88.23;101006.52;106154;1260;99037;-88
2023/09/17 00:42:23;;;;;;;12.00;9.50;;;;;;;14.99;88.42;101003.94;106130;1261;96567;-87
2023/09/17 00:45:10;;;;;;;15.30;10.20;;;;;;;14.94;88.61;101002.48;106259;1261;97375;-89
2023/09/17 00:47:56;;;;;;;11.40;8.90;;;;;;;14.91;88.99;100994.55;105744;1262;157138;-88
2023/09/17 00:50:43;;;;;;;13.40;9.60;;;;;;;14.90;89.16;100989.08;105935;1268;99760;-89
2023/09/17 00:53:29;;;;;;;15.70;9.60;;;;;;;14.90;89.32;100988.28;105899;1267;97828;-85
2023/09/17 00:56:15;;;;;;;13.70;10.10;;;;;;;14.90;89.21;100987.54;105767;1266;96741;-88
2023/09/17 00:59:05;;;;;;;16.00;9.40;;;;;;;14.88;89.37;100980.98;105855;1267;97130;-88
2023/09/17 01:01:51;;;;;;;13.70;9.40;;;;;;;14.86;89.52;100982.84;105969;1265;100170;-88
2023/09/17 01:04:40;;;;;;;12.00;10.70;;;;;;;14.86;89.41;100981.02;105994;1265;100099;-87
2023/09/17 01:07:27;;;;;;;12.20;10.30;;;;;;;14.86;89.42;100980.02;105796;1259;97539;-87
2023/09/17 01:10:14;;;;;;;16.50;10.00;;;;;;;14.85;89.56;100975.13;105731;1268;97139;-87
2023/09/17 01:13:02;;;;;;;14.20;10.90;;;;;;;14.83;89.88;100975.54;105999;1261;98204;-86
2023/09/17 01:15:50;;;;;;;14.80;10.50;;;;;;;14.80;89.92;100972.84;105985;1267;100090;-88
2023/09/17 01:18:38;;;;;;;14.60;9.80;;;;;;;14.80;89.85;100973.63;105992;1263;99805;-85
2023/09/17 01:21:41;;;;;;;14.00;9.90;;;;;;;14.79;89.63;100972.84;105751;1269;97680;-87
2023/09/17 01:24:40;;;;;;;12.50;10.40;;;;;;;14.78;89.57;100973.66;105919;1260;96538;-85
2023/09/17 01:27:28;;;;;;;11.70;8.70;;;;;;;14.76;89.40;100971.41;105895;1259;97082;-88
2023/09/17 01:30:21;;;;;;;11.30;8.90;;;;;;;14.74;89.35;100969.80;105981;1261;101218;-85
2023/09/17 01:33:10;;;;;;;11.90;9.70;;;;;;;14.71;89.45;100968.00;105942;1268;100564;-86
2023/09/17 01:36:15;;;;;;;16.20;9.60;;;;;;;14.69;89.73;100972.86;105936;1267;99098;-87
2023/09/17 01:39:04;;;;;;;12.70;9.20;;;;;;;14.67;89.66;100975.83;105973;1267;96597;-86
2023/09/17 01:41:51;;;;;;;13.70;9.40;;;;;;;14.66;89.48;100980.11;105959;1260;96553;-86
2023/09/17 01:44:38;;;;;;;12.40;9.50;;;;;;;14.63;89.36;100981.02;105798;1261;101425;-87
2023/09/17 01:47:25;;;;;;;11.20;8.80;;;;;;;14.61;89.27;100978.30;105839;1263;99231;-87
2023/09/17 01:50:15;;;;;;;12.60;8.60;;;;;;;14.58;89.01;100975.69;105844;1261;97716;-86
2023/09/17 01:53:01;;;;;;;11.00;8.60;;;;;;;14.55;89.48;100971.83;106001;1265;96551;-86
2023/09/17 01:55:56;;;;;;;11.50;8.70;;;;;;;14.53;89.07;100970.74;105927;1267;96512;-86
2023/09/17 01:58:42;;;;;;;13.10;9.90;;;;;;;14.49;89.36;100968.82;105813;1264;101340;-86
2023/09/17 02:01:28;;;;;;;16.10;8.90;;;;;;;14.44;89.57;100967.08;105883;1261;99352;-88
2023/09/17 02:04:14;;;;;;;14.10;10.00;;;;;;;14.40;89.43;100964.73;106093;1265;99060;-86
2023/09/17 02:07:00;;;;;;;14.80;9.80;;;;;;;14.36;89.88;100964.64;105806;1267;96641;-87
2023/09/17 02:09:45;;;;;;;11.30;9.30;;;;;;;14.33;90.11;100964.05;105922;1270;97076;-86
2023/09/17 02:12:31;;;;;;;11.70;9.00;;;;;;;14.31;90.04;100965.77;105975;1261;100976;-86
2023/09/17 02:15:18;;;;;;;12.80;9.10;;;;;;;14.28;89.85;100963.64;106014;1262;99749;-88
2023/09/17 02:18:05;;;;;;;12.60;9.40;;;;;;;14.26;90.11;100966.47;105937;1276;99118;-86
2023/09/17 02:20:50;;;;;;;12.40;9.20;;;;;;;14.23;90.05;100965.77;105818;1267;96613;-86
2023/09/17 02:23:36;;;;;;;11.00;8.80;;;;;;;14.20;90.32;100961.85;105751;1259;97194;-87
2023/09/17 02:26:24;;;;;;;12.40;9.10;;;;;;;14.18;90.65;100962.17;105980;1262;100091;-86
2023/09/17 02:29:10;;;;;;;12.00;9.20;;;;;;;14.15;90.29;100964.12;106030;1261;99360;-87
2023/09/17 02:31:56;;;;;;;10.40;8.70;;;;;;;14.12;90.38;100965.30;105849;1259;97893;-87
2023/09/17 02:34:42;;;;;;;13.90;9.20;;;;;;;14.09;90.01;100965.98;105784;1265;96560;-87
2023/09/17 02:37:28;;;;;;;12.60;9.40;;;;;;;14.07;90.21;100964.35;105829;1259;96844;-88
2023/09/17 02:40:13;;;;;;;10.80;8.80;;;;;;;14.05;90.46;100960.09;106073;1265;100933;-86
2023/09/17 02:43:01;;;;;;;12.10;9.40;;;;;;;14.02;90.33;100957.80;105756;1265;100440;-86
2023/09/17 02:45:49;;;;;;;11.70;9.40;;;;;;;14.00;90.49;100958.29;105955;1265;99116;-88
2023/09/17 02:48:34;;;;;;;13.50;8.80;;;;;;;13.97;90.51;100959.39;105802;1268;96718;-86
2023/09/17 02:51:21;;;;;;;12.00;8.70;;;;;;;13.93;90.54;100964.46;105853;1261;96721;-87
2023/09/17 02:54:07;;;;;;;12.80;9.50;;;;;;;13.90;90.51;100964.91;105945;1262;102532;-88
2023/09/17 02:56:53;;;;;;;12.40;8.90;;;;;;;13.88;90.35;100962.83;105939;1264;100218;-86
2023/09/17 02:59:40;;;;;;;12.00;9.00;;;;;;;13.86;90.42;100965.22;105751;1265;97836;-87
2023/09/17 03:02:26;;;;;;;15.50;9.80;;;;;;;13.85;90.29;100963.64;105973;1261;97307;-86
2023/09/17 03:05:12;;;;;;;13.10;9.30;;;;;;;13.82;90.20;100962.17;106033;1262;96535;-89
2023/09/17 03:07:58;;;;;;;14.30;10.00;;;;;;;13.81;90.36;100956.28;106039;1262;101682;-87
2023/09/17 03:10:45;;;;;;;11.10;8.70;;;;;;;13.81;90.52;100958.93;106076;1261;99166;-88
2023/09/17 03:13:31;;;;;;;12.60;9.30;;;;;;;13.81;90.60;100956.07;105973;1262;97825;-87
2023/09/17 03:16:18;;;;;;;16.70;10.70;;;;;;;13.80;90.46;100957.64;105831;1268;96613;-87
2023/09/17 03:19:05;;;;;;;12.70;10.20;;;;;;;13.78;90.68;100959.12;106074;1265;96692;-89
2023/09/17 03:21:50;;;;;;;12.90;9.80;;;;;;;13.77;91.09;100954.64;106158;1262;100116;-88
2023/09/17 03:24:37;;;;;;;13.60;9.80;;;;;;;13.75;91.04;100951.89;105953;1265;100509;-88
2023/09/17 03:27:24;;;;;;;12.90;9.90;;;;;;;13.71;91.20;100949.50;106139;1265;97812;-88
2023/09/17 03:30:10;;;;;;;12.70;9.90;;;;;;;13.70;91.16;100954.52;106029;1267;98014;-86
2023/09/17 03:32:57;;;;;;;14.10;10.10;;;;;;;13.68;91.26;100955.26;105924;1265;97155;-86
2023/09/17 03:35:44;;;;;;;15.70;9.90;;;;;;;13.67;91.01;100957.16;105869;1261;101075;-86
2023/09/17 03:38:30;;;;;;;13.40;10.10;;;;;;;13.65;91.06;100953.01;105855;1264;99635;-86
2023/09/17 03:41:16;;;;;;;12.60;9.50;;;;;;;13.63;91.33;100951.62;106150;1261;97794;-86
2023/09/17 03:44:02;;;;;;;12.60;9.30;;;;;;;13.61;91.24;100948.21;105970;1261;96517;-86
2023/09/17 03:46:48;;;;;;;13.70;9.00;;;;;;;13.61;91.18;100945.23;105955;1262;96568;-86
2023/09/17 03:49:35;;;;;;;14.60;10.50;;;;;;;13.59;90.93;100942.77;105885;1262;101370;-87
2023/09/17 03:52:21;;;;;;;13.20;9.50;;;;;;;13.58;91.07;100943.48;106236;1262;99595;-87
2023/09/17 03:55:08;;;;;;;13.80;9.90;;;;;;;13.56;91.35;100945.73;106000;1262;99078;-89
2023/09/17 03:57:57;;;;;;;15.30;10.30;;;;;;;13.53;91.75;100943.90;106127;1263;95856;-86
2023/09/17 04:00:44;;;;;;;14.30;9.80;;;;;;;13.49;91.86;100942.30;106086;1259;97123;-87
2023/09/17 04:03:30;;;;;;;12.70;9.80;;;;;;;13.46;91.67;100943.11;105959;1265;100914;-87
2023/09/17 04:06:16;;;;;;;11.20;9.60;;;;;;;13.43;91.78;100940.77;106061;1266;99379;-87
2023/09/17 04:09:01;;;;;;;13.90;10.10;;;;;;;13.40;92.03;100945.88;106027;1261;97774;-87
2023/09/17 04:11:47;;;;;;;13.60;9.20;;;;;;;13.39;92.21;100941.69;106585;1260;96536;-85
2023/09/17 04:14:33;;;;;;;13.70;10.10;;;;;;;13.36;92.06;100935.89;106568;1262;96606;-86
2023/09/17 04:17:19;;;;;;;13.10;10.20;;;;;;;13.35;91.86;100931.94;106698;1261;100077;-87
2023/09/17 04:20:11;;;;;;;13.90;10.30;;;;;;;13.34;91.96;100928.36;106847;1265;99194;-88
2023/09/17 04:22:57;;;;;;;16.10;10.70;;;;;;;13.32;92.26;100926.73;106879;1261;97788;-87
2023/09/17 04:25:43;;;;;;;15.90;11.20;;;;;;;13.32;92.19;100921.77;106553;1259;96633;-87
2023/09/17 04:28:30;;;;;;;13.50;10.20;;;;;;;13.32;92.11;100921.73;106044;1265;95903;-86
2023/09/17 04:31:17;;;;;;;13.90;10.20;;;;;;;13.33;92.43;100927.20;105939;1262;100122;-86
2023/09/17 04:34:04;;;;;;;13.00;9.80;;;;;;;13.32;92.63;100931.38;106088;1265;100430;-86
2023/09/17 04:36:50;;;;;;;14.70;10.40;;;;;;;13.32;92.77;100934.27;106107;1265;99060;-85
2023/09/17 04:39:36;;;;;;;13.70;11.00;;;;;;;13.32;93.10;100933.54;105940;1262;96621;-87
2023/09/17 04:42:22;;;;;;;15.70;10.10;;;;;;;13.31;93.17;100931.16;105990;1270;96573;-88
2023/09/17 04:45:09;;;;;;;13.30;10.30;;;;;;;13.33;93.16;100938.91;105927;1260;100103;-87
2023/09/17 04:47:55;;;;;;;13.00;10.20;;;;;;;13.33;93.64;100941.35;106187;1262;100043;-89
2023/09/17 04:50:43;;;;;;;13.50;10.30;;;;;;;13.33;93.66;100939.34;105944;1262;99109;-88
2023/09/17 04:53:29;;;;;;;15.20;11.40;;;;;;;13.34;93.84;100941.21;106321;1266;96610;-88
2023/09/17 04:56:18;;;;;;;15.50;10.80;;;;;;;13.34;93.95;100940.84;106218;1262;97068;-87
2023/09/17 04:59:04;;;;;;;15.80;11.30;;;;;;;13.33;94.28;100943.80;106028;1265;100102;-88
2023/09/17 05:01:50;;;;;;;15.10;11.80;;;;;;;13.35;94.36;100948.61;105925;1268;99196;-85
2023/09/17 05:04:37;;;;;;;15.00;11.60;;;;;;;13.36;94.78;100951.69;106054;1268;97790;-87
2023/09/17 05:07:23;;;;;;;14.80;11.60;;;;;;;13.37;95.08;100955.59;106028;1261;97003;-87
2023/09/17 05:10:09;;;;;;;18.70;13.40;;;;;;;13.37;95.51;100959.63;106109;1262;97114;-87
2023/09/17 05:12:56;;;;;;;17.90;12.50;;;;;;;13.39;95.74;100959.74;105920;1262;100129;-88
2023/09/17 05:15:42;;;;;;;17.40;11.90;;;;;;;13.40;96.40;100955.13;106169;1263;100456;-86
2023/09/17 05:18:28;;;;;;;21.80;13.70;;;;;;;13.44;96.48;100959.65;106006;1265;98352;-87
2023/09/17 05:21:14;;;;;;;17.50;13.10;;;;;;;13.48;96.83;100963.48;106244;1262;96669;-88
2023/09/17 05:24:00;;;;;;;19.70;12.50;;;;;;;13.51;97.26;100962.64;106125;1265;98315;-86
2023/09/17 05:26:46;;;;;;;17.00;12.70;;;;;;;13.55;97.19;100965.16;106011;1263;101339;-86
2023/09/17 05:29:32;;;;;;;21.00;14.30;;;;;;;13.59;97.33;100962.65;105943;1269;100437;-89
2023/09/17 05:32:18;;;;;;;18.50;12.70;;;;;;;13.65;97.39;100963.60;106133;1267;98401;-88
2023/09/17 05:35:04;;;;;;;21.40;13.40;;;;;;;13.67;97.78;100960.09;106061;1269;96626;-87
2023/09/17 05:37:50;;;;;;;18.60;13.20;;;;;;;13.71;97.89;100962.23;106080;1261;97068;-87
2023/09/17 05:40:36;;;;;;;15.80;12.60;;;;;;;13.77;98.23;100970.96;105995;1267;100152;-86
2023/09/17 05:43:24;;;;;;;16.50;13.10;;;;;;;13.81;98.50;100971.73;105996;1265;99900;-87
2023/09/17 05:46:10;;;;;;;16.80;13.50;;;;;;;13.83;98.85;100971.16;105904;1265;98644;-87
2023/09/17 05:48:59;;;;;;;18.20;13.60;;;;;;;13.88;98.86;100972.88;105957;1265;96651;-89
2023/09/17 05:51:46;;;;;;;19.10;13.80;;;;;;;13.94;98.97;100974.29;106273;1261;96737;-88
2023/09/17 05:54:33;;;;;;;18.30;13.00;;;;;;;13.99;99.10;100971.50;106102;1268;102800;-88
2023/09/17 05:57:18;;;;;;;18.10;14.00;;;;;;;14.03;99.10;100969.12;106039;1267;99385;-88
2023/09/17 06:00:07;;;;;;;18.10;13.70;;;;;;;14.07;99.36;100971.09;106104;1268;97872;-86
2023/09/17 06:03:03;;;;;;;19.20;14.50;;;;;;;14.13;99.66;100968.73;105951;1267;96591;-87
2023/09/17 06:05:49;;;;;;;19.60;14.70;;;;;;;14.17;99.54;100964.52;106280;1262;96606;-88
2023/09/17 06:08:35;;;;;;;17.70;13.60;;;;;;;14.24;99.79;100962.48;105916;1267;100237;-87
2023/09/17 06:11:20;;;;;;;16.60;13.00;;;;;;;14.30;99.91;100965.20;105972;1261;99214;-87
2023/09/17 06:14:08;;;;;;;18.40;13.80;;;;;;;14.37;99.94;100969.16;106160;1265;99563;-87
2023/09/17 06:16:53;;;;;;;18.60;14.10;;;;;;;14.43;99.89;100966.86;106158;1266;96702;-86
2023/09/17 06:19:40;;;;;;;22.00;14.10;;;;;;;14.50;99.88;100965.55;106093;1261;96710;-88
2023/09/17 06:22:26;;;;;;;17.80;13.10;;;;;;;14.57;99.89;100962.87;105920;1267;100204;-87
2023/09/17 06:25:12;;;;;;;18.10;13.80;;;;;;;14.64;100.00;100961.30;106012;1268;99229;-88
2023/09/17 06:27:58;;;;;;;17.80;13.70;;;;;;;14.72;100.00;100961.36;105862;1263;99033;-86
2023/09/17 06:30:46;;;;;;;18.20;12.80;;;;;;;14.80;99.96;100960.27;105873;1259;96538;-86
2023/09/17 06:33:35;;;;;;;17.80;12.80;;;;;;;14.90;100.00;100960.77;106007;1265;97125;-88
2023/09/17 06:36:23;;;;;;;16.40;12.90;;;;;;;15.00;100.00;100961.28;106118;1260;100092;-87
2023/09/17 06:39:09;;;;;;;22.70;14.50;;;;;;;15.11;100.00;100959.41;106165;1264;100566;-87
2023/09/17 06:41:55;;;;;;;16.50;13.30;;;;;;;15.20;99.93;100961.41;105890;1267;97740;-87
2023/09/17 06:44:41;;;;;;;16.50;12.70;;;;;;;15.29;99.95;100961.29;105827;1270;96616;-87
2023/09/17 06:47:27;;;;;;;20.50;13.90;;;;;;;15.38;99.87;100961.85;105999;1260;96602;-87
2023/09/17 06:50:13;;;;;;;17.80;13.70;;;;;;;15.46;99.90;100963.67;106185;1265;109317;-87
2023/09/17 06:52:58;;;;;;;16.60;12.40;;;;;;;15.53;99.90;100960.88;105955;1265;99836;-88
2023/09/17 06:55:44;;;;;;;17.30;12.30;;;;;;;15.62;99.88;100961.64;105799;1265;99124;-89
2023/09/17 06:58:30;;;;;;;19.30;14.80;;;;;;;15.70;99.78;100959.13;106113;1261;96643;-89
2023/09/17 07:01:18;;;;;;;14.70;11.40;;;;;;;15.78;99.95;100954.92;106046;1270;97095;-87
2023/09/17 07:04:04;;;;;;;17.10;12.80;;;;;;;15.87;99.92;100951.37;105836;1267;100949;-86
2023/09/17 07:06:50;;;;;;;14.30;12.10;;;;;;;15.97;99.60;100952.38;105894;1265;100427;-88
2023/09/17 07:09:36;;;;;;;18.50;12.10;;;;;;;16.06;99.30;100953.91;105741;1265;99120;-86
2023/09/17 07:12:21;;;;;;;15.70;11.90;;;;;;;16.17;99.37;100954.46;105977;1265;96750;-85
2023/09/17 07:15:10;;;;;;;16.00;11.90;;;;;;;16.27;99.34;100953.70;105897;1267;96662;-86
2023/09/17 07:17:55;;;;;;;17.00;12.20;;;;;;;16.39;99.17;100958.30;105707;1265;100084;-86
2023/09/17 07:20:41;;;;;;;19.20;13.40;;;;;;;16.50;99.16;100956.57;105997;1269;100447;-86
2023/09/17 07:23:27;;;;;;;15.00;11.60;;;;;;;16.62;99.20;100954.96;106027;1268;106369;-84
2023/09/17 07:26:15;;;;;;;17.90;11.70;;;;;;;16.74;99.40;100955.59;106098;1260;96587;-86
2023/09/17 07:29:03;;;;;;;15.80;12.00;;;;;;;16.86;98.99;100953.88;105980;1261;97085;-86
2023/09/17 07:31:49;;;;;;;18.10;10.90;;;;;;;16.97;98.63;100954.64;105996;1265;100179;-85
2023/09/17 07:34:35;;;;;;;16.20;11.40;;;;;;;17.06;98.05;100952.77;105852;1264;99366;-85
2023/09/17 07:37:21;;;;;;;14.30;11.50;;;;;;;17.15;97.55;100951.83;105804;1265;99580;-85
2023/09/17 07:40:07;;;;;;;16.30;11.20;;;;;;;17.23;97.32;100951.02;105784;1269;97301;-86
2023/09/17 07:42:53;;;;;;;14.50;11.40;;;;;;;17.31;97.19;100949.64;106012;1265;96477;-87
2023/09/17 07:45:39;;;;;;;18.10;11.40;;;;;;;17.40;97.09;100948.52;105856;1261;101489;-85
2023/09/17 07:48:25;;;;;;;12.70;10.80;;;;;;;17.49;97.03;100949.70;105932;1260;100549;-85
2023/09/17 07:51:10;;;;;;;17.60;10.80;;;;;;;17.60;96.88;100953.41;105846;1263;99099;-86
2023/09/17 07:53:56;;;;;;;14.30;11.00;;;;;;;17.69;96.82;100956.89;106125;1265;96709;-86
2023/09/17 07:56:42;;;;;;;13.30;10.50;;;;;;;17.78;96.84;100958.80;105825;1265;96657;-86
2023/09/17 07:59:28;;;;;;;16.10;11.30;;;;;;;17.88;96.66;100962.07;106075;1264;100089;-86
2023/09/17 08:02:14;;;;;;;15.60;10.60;;;;;;;17.98;96.32;100965.57;105931;1261;99315;-86
2023/09/17 08:04:59;;;;;;;15.00;11.40;;;;;;;18.08;95.72;100964.63;105814;1267;99063;-88
2023/09/17 08:07:45;;;;;;;14.60;10.50;;;;;;;18.16;95.24;100960.23;105902;1268;96818;-86
2023/09/17 08:10:31;;;;;;;14.80;10.20;;;;;;;18.23;95.03;100964.68;106092;1267;96528;-88
2023/09/17 08:13:17;;;;;;;14.90;10.40;;;;;;;18.30;95.26;100963.59;106144;1261;100585;-89
2023/09/17 08:16:04;;;;;;;15.90;10.80;;;;;;;18.38;94.49;100962.88;105941;1267;102103;-88
2023/09/17 08:18:50;;;;;;;13.30;10.40;;;;;;;18.45;94.64;100964.14;105996;1260;99053;-88
2023/09/17 08:21:35;;;;;;;13.80;10.00;;;;;;;18.55;94.89;100963.00;106030;1264;96689;-87
2023/09/17 08:24:25;;;;;;;13.60;10.20;;;;;;;18.65;94.43;100963.12;106137;1260;97219;-88
2023/09/17 08:27:11;;;;;;;13.10;10.10;;;;;;;18.74;94.37;100961.03;106355;1260;100139;-88
2023/09/17 08:29:59;;;;;;;12.60;9.50;;;;;;;18.85;93.99;100957.34;106024;1264;99071;-88
2023/09/17 08:32:45;;;;;;;14.40;11.40;;;;;;;18.94;93.81;100958.41;106024;1264;98860;-86
2023/09/17 08:35:32;;;;;;;16.30;10.00;;;;;;;19.02;93.25;100956.65;106162;1263;96568;-88
2023/09/17 08:38:18;;;;;;;12.80;9.30;;;;;;;19.09;93.33;100953.36;106291;1266;95749;-89
2023/09/17 08:41:06;;;;;;;15.80;9.70;;;;;;;19.18;93.61;100956.14;105733;1260;101469;-87
2023/09/17 08:43:53;;;;;;;12.40;9.90;;;;;;;19.27;93.32;100953.20;106082;1264;99206;-87
2023/09/17 08:46:40;;;;;;;10.80;9.30;;;;;;;19.36;92.94;100956.91;105875;1269;97863;-88
2023/09/17 08:49:26;;;;;;;11.60;9.50;;;;;;;19.43;92.30;100956.97;105860;1260;96620;-87
2023/09/17 08:52:17;;;;;;;11.20;9.00;;;;;;;19.50;92.22;100952.24;106097;1260;96105;-87
2023/09/17 08:55:04;;;;;;;;;;;;;;;19.58;92.13;100952.93;106029;1261;100805;-87
2023/09/17 08:58:08;;;;;;;13.50;8.90;;;;;;;19.64;92.41;100959.02;105945;1264;99318;-87
2023/09/17 09:00:58;;;;;;;11.80;8.40;;;;;;;19.74;92.12;100962.88;105747;1260;99069;-86
2023/09/17 09:03:45;;;;;;;11.40;9.50;;;;;;;19.83;91.92;100960.68;105829;1260;96527;-88
2023/09/17 09:06:33;;;;;;;12.20;8.90;;;;;;;19.92;91.28;100958.77;105817;1261;97046;-87
2023/09/17 09:09:21;;;;;;;12.90;9.60;;;;;;;20.00;91.34;100956.97;105842;1261;100105;-88
2023/09/17 09:12:07;;;;;;;14.10;9.30;;;;;;;20.11;91.19;100956.43;105619;1260;99068;-87
2023/09/17 09:14:53;;;;;;;19.80;9.60;;;;;;;20.20;91.33;100959.31;105775;1269;99136;-88
2023/09/17 09:17:39;;;;;;;13.30;8.80;;;;;;;20.30;91.58;100959.91;106038;1266;96605;-87
2023/09/17 09:20:26;;;;;;;12.10;9.50;;;;;;;20.42;90.90;100953.83;105801;1261;97074;-87
2023/09/17 09:23:12;;;;;;;11.10;8.90;;;;;;;20.50;90.35;100947.41;105778;1268;100130;-85
2023/09/17 09:25:57;;;;;;;11.20;8.90;;;;;;;20.56;89.88;100941.53;105893;1267;99152;-87
2023/09/17 09:28:44;;;;;;;12.20;9.00;;;;;;;20.62;89.24;100943.41;105798;1264;99168;-85
2023/09/17 09:31:31;;;;;;;11.10;8.80;;;;;;;20.71;89.55;100947.80;105896;1260;96887;-86
2023/09/17 09:34:18;;;;;;;12.60;8.90;;;;;;;20.79;88.96;100941.52;105812;1260;97062;-87
2023/09/17 09:37:05;;;;;;;12.60;8.60;;;;;;;20.84;88.51;100939.55;106594;1260;100087;-80
2023/09/17 09:39:52;;;;;;;10.50;8.20;;;;;;;20.90;88.73;100939.20;106886;1265;99347;-86
2023/09/17 09:42:37;;;;;;;11.90;8.50;;;;;;;20.97;88.69;100941.30;105891;1265;97774;-86
2023/09/17 09:45:23;;;;;;;9.40;8.00;;;;;;;21.05;88.70;100937.96;106110;1259;96536;-87
2023/09/17 09:48:13;;;;;;;11.30;8.00;;;;;;;21.14;88.58;100937.64;106310;1260;98251;-86
2023/09/17 09:50:59;;;;;;;11.70;7.90;;;;;;;21.21;88.47;100934.55;106249;1260;100094;-88
2023/09/17 09:53:45;;;;;;;9.10;8.10;;;;;;;21.29;88.54;100931.73;106358;1260;100210;-88
2023/09/17 09:56:31;;;;;;;13.80;8.90;;;;;;;21.36;88.31;100932.48;106362;1260;99381;-87
2023/09/17 09:59:17;;;;;;;9.70;8.10;;;;;;;21.49;88.11;100933.66;106074;1262;97928;-84
2023/09/17 10:02:04;;;;;;;9.30;7.90;;;;;;;21.61;87.92;100933.12;106000;1261;97167;-84
2023/09/17 10:04:50;;;;;;;9.60;8.00;;;;;;;21.69;86.87;100930.58;107345;1261;101777;-82
2023/09/17 10:07:35;;;;;;;10.10;8.30;;;;;;;21.78;86.63;100930.26;106067;1261;99088;-84
2023/09/17 10:10:21;;;;;;;10.70;8.50;;;;;;;21.85;86.78;100926.23;105966;1264;97902;-83
2023/09/17 10:13:08;;;;;;;11.10;7.70;;;;;;;21.90;86.15;100926.67;106062;1266;96540;-83
2023/09/17 10:15:55;;;;;;;8.60;7.70;;;;;;;21.95;85.61;100924.09;105890;1260;97063;-82
2023/09/17 10:18:42;;;;;;;9.50;7.50;;;;;;;22.01;85.23;100920.52;105988;1261;100978;-83
2023/09/17 10:21:29;;;;;;;12.50;7.70;;;;;;;22.06;85.75;100923.40;106221;1260;99871;-80
2023/09/17 10:24:17;;;;;;;10.20;7.20;;;;;;;22.14;85.85;100922.61;106052;1260;98845;-80
2023/09/17 10:27:05;;;;;;;11.10;7.20;;;;;;;22.27;85.77;100923.77;106171;1263;96620;-81
2023/09/17 10:29:51;;;;;;;9.50;7.10;;;;;;;22.39;84.96;100924.45;105565;1261;96614;-82
2023/09/17 10:32:37;;;;;;;8.90;7.70;;;;;;;22.46;83.51;100923.59;105936;1260;100016;-83
2023/09/17 10:35:22;;;;;;;9.10;7.50;;;;;;;22.49;83.26;100922.48;105885;1260;99873;-82
2023/09/17 10:38:09;;;;;;;10.10;7.10;;;;;;;22.56;83.45;100921.09;105952;1266;97854;-82
2023/09/17 10:40:56;;;;;;;8.50;6.70;;;;;;;22.61;83.51;100919.36;106003;1262;96617;-83
2023/09/17 10:43:44;;;;;;;9.40;7.10;;;;;;;22.70;83.53;100917.69;106140;1260;97082;-82
2023/09/17 10:46:31;;;;;;;12.00;7.20;;;;;;;22.81;83.75;100915.11;105995;1260;100088;-82
2023/09/17 10:49:17;;;;;;;9.50;6.90;;;;;;;22.92;83.54;100915.50;106119;1260;99209;-82
2023/09/17 10:52:06;;;;;;;9.60;7.60;;;;;;;22.98;82.70;100915.17;106308;1263;99037;-80
2023/09/17 10:54:51;;;;;;;8.70;6.60;;;;;;;23.04;81.98;100917.46;106366;1260;96626;-81
2023/09/17 10:57:47;;;;;;;7.70;6.90;;;;;;;23.10;81.84;100918.32;106473;1260;98411;-82
2023/09/17 11:00:35;;;;;;;7.90;6.80;;;;;;;23.13;81.80;100920.26;106569;1263;101326;-82
2023/09/17 11:03:24;;;;;;;9.50;7.00;;;;;;;23.16;81.18;100921.38;107033;1263;100311;-81
2023/09/17 11:06:16;;;;;;;8.20;6.90;;;;;;;23.21;80.54;100922.52;107960;1259;98549;-82
2023/09/17 11:09:04;;;;;;;10.60;7.10;;;;;;;23.24;79.86;100920.78;106220;1259;96609;-81
2023/09/17 11:11:50;;;;;;;7.50;6.70;;;;;;;23.28;80.06;100918.79;106353;1263;97263;-80
2023/09/17 11:14:36;;;;;;;7.10;6.40;;;;;;;23.34;80.19;100914.15;106448;1264;100078;-80
2023/09/17 11:17:32;;;;;;;7.80;6.40;;;;;;;23.41;80.06;100916.94;106271;1260;99138;-82
2023/09/17 11:20:20;;;;;;;6.50;5.80;;;;;;;23.52;79.98;100916.14;106442;1264;98418;-81
2023/09/17 11:23:05;;;;;;;9.20;6.30;;;;;;;23.62;80.10;100912.98;106132;1259;96616;-81
2023/09/17 11:25:51;;;;;;;6.90;6.20;;;;;;;23.67;79.61;100909.95;106332;1262;96787;-81
2023/09/17 11:28:38;;;;;;;9.70;6.40;;;;;;;23.75;79.18;100903.31;106289;1264;100080;-81
2023/09/17 11:31:28;;;;;;;8.10;6.60;;;;;;;23.82;78.78;100904.27;106172;1260;99133;-81
2023/09/17 11:34:13;;;;;;;9.00;6.20;;;;;;;23.88;78.69;100903.92;106171;1260;97798;-81
2023/09/17 11:36:59;;;;;;;7.40;5.70;;;;;;;23.95;77.69;100905.86;106588;1260;95618;-81
2023/09/17 11:39:51;;;;;;;6.50;5.90;;;;;;;24.00;77.37;100905.88;106432;1260;96604;-81
2023/09/17 11:42:37;;;;;;;7.70;6.10;;;;;;;24.12;77.15;100907.77;106061;1260;101339;-81
2023/09/17 11:45:22;;;;;;;7.90;6.10;;;;;;;24.20;76.05;100901.98;106097;1260;99191;-81
2023/09/17 11:48:08;;;;;;;6.50;5.20;;;;;;;24.22;75.42;100900.14;106014;1260;98377;-81
2023/09/17 11:51:27;;;;;;;6.80;5.70;;;;;;;24.26;75.98;100898.30;106187;1260;96536;-80
2023/09/17 11:54:18;;;;;;;8.80;6.30;;;;;;;24.30;75.05;100895.30;106351;1260;97130;-81
2023/09/17 11:57:04;;;;;;;8.40;6.00;;;;;;;24.33;74.64;100893.05;106329;1261;101361;-80
2023/09/17 11:59:49;;;;;;;8.40;6.20;;;;;;;24.36;74.88;100893.82;106364;1260;100446;-81
2023/09/17 12:02:36;;;;;;;9.30;5.70;;;;;;;24.39;75.23;100896.08;106347;1265;97546;-81
2023/09/17 12:05:22;;;;;;;7.60;5.90;;;;;;;24.46;75.35;100896.36;106080;1264;96550;-80
2023/09/17 12:08:07;;;;;;;7.80;6.40;;;;;;;24.51;74.52;100896.33;106227;1261;96588;-81
2023/09/17 12:10:59;;;;;;;11.10;5.50;;;;;;;24.53;73.36;100898.68;106202;1261;101743;-80
2023/09/17 12:13:45;;;;;;;6.20;5.50;;;;;;;24.60;73.81;100902.19;106097;1262;100654;-80
2023/09/17 12:16:32;;;;;;;9.40;6.00;;;;;;;24.72;74.04;100900.96;106189;1261;97793;-80
2023/09/17 12:19:18;;;;;;;7.30;5.10;;;;;;;24.83;73.73;100902.86;106186;1264;96623;-81
2023/09/17 12:22:08;;;;;;;6.80;5.30;;;;;;;24.92;72.68;100900.79;106107;1264;96623;-81
2023/09/17 12:25:05;;;;;;;5.90;5.20;;;;;;;24.92;72.43;100901.17;106144;1262;100023;-81
2023/09/17 12:27:52;;;;;;;7.00;5.40;;;;;;;24.91;72.49;100897.05;106255;1262;99074;-81
2023/09/17 12:30:37;;;;;;;7.80;5.60;;;;;;;24.89;72.05;100896.11;106235;1262;97735;-81
2023/09/17 12:33:23;;;;;;;7.50;5.50;;;;;;;24.87;71.90;100892.50;106231;1267;96752;-81